Terminal Aerodrome Forecast
Issued by NWS Wilmington, OH

Home | Current Version | Previous Version | Text Only | Print | Product List | Glossary On
Versions: 1 2 3 4 5 6 7 8 9 10 11 12 13 14 15 16 17 18 19 20 21 22 23
000
FTUS41 KILN 232349
TAFCVG
TAF
KCVG 232349Z 2400/2506 13005KT P6SM BKN120
     FM241000 13005KT P6SM SCT025 BKN050
     FM241400 14005KT 6SM -SHRA OVC050
     FM241600 14005KT 4SM SHRA SCT020 OVC035
     FM242100 32005KT 6SM -SHRA OVC015
     FM242300 26005KT P6SM BKN015=

USA.gov is the U.S. government's official web portal to all federal, state and local government web resources and services.